createdAt,value
2018-12-30T00:01:51.464Z,41.80
2018-12-30T00:04:20.916Z,40.73
2018-12-30T00:07:02.477Z,35.30
2018-12-30T00:09:38.910Z,35.93
2018-12-30T00:12:12.413Z,35.83
2018-12-30T00:14:47.361Z,32.83
2018-12-30T00:17:26.847Z,30.00
2018-12-30T00:20:04.858Z,28.63
2018-12-30T00:22:39.922Z,28.00
2018-12-30T00:25:14.328Z,30.23
2018-12-30T00:27:51.119Z,29.20
2018-12-30T00:30:30.383Z,29.57
2018-12-30T00:33:14.456Z,25.03
2018-12-30T00:36:04.070Z,28.10
2018-12-30T00:38:41.973Z,27.23
2018-12-30T00:41:18.459Z,23.67
2018-12-30T00:43:51.095Z,25.00
2018-12-30T00:46:31.936Z,23.53
2018-12-30T00:49:07.519Z,23.17
2018-12-30T00:51:41.947Z,22.10
2018-12-30T00:54:16.380Z,24.73
2018-12-30T00:56:46.754Z,19.00
2018-12-30T00:59:15.721Z,20.93
2018-12-30T01:01:44.774Z,20.17
2018-12-30T01:04:14.075Z,20.53
2018-12-30T01:06:43.066Z,24.27
2018-12-30T01:09:12.064Z,23.27
2018-12-30T01:11:41.048Z,21.47
2018-12-30T01:14:09.989Z,16.97
2018-12-30T01:16:39.011Z,17.63
2018-12-30T01:19:08.289Z,18.80
2018-12-30T01:21:37.279Z,20.77
2018-12-30T01:24:06.329Z,21.93
2018-12-30T01:26:35.327Z,17.90
2018-12-30T01:29:04.315Z,17.73
2018-12-30T01:31:33.675Z,14.10
2018-12-30T01:34:02.668Z,15.30
2018-12-30T01:36:31.603Z,14.43
2018-12-30T01:39:00.672Z,15.03
2018-12-30T01:41:29.636Z,15.60
2018-12-30T01:43:58.718Z,20.33
2018-12-30T01:46:27.687Z,12.97
2018-12-30T01:48:56.695Z,13.63
2018-12-30T01:51:32.865Z,13.73
2018-12-30T01:53:56.291Z,13.03
2018-12-30T01:56:25.294Z,11.50
2018-12-30T01:58:54.280Z,14.03
2018-12-30T02:01:23.329Z,16.03
2018-12-30T02:03:52.312Z,13.53
2018-12-30T02:06:21.376Z,11.57
2018-12-30T02:08:50.339Z,14.60
2018-12-30T02:11:19.231Z,12.37
2018-12-30T02:13:48.184Z,10.63
2018-12-30T02:16:17.144Z,10.97
2018-12-30T02:18:46.120Z,11.30
2018-12-30T02:21:15.115Z,11.77
2018-12-30T02:23:44.153Z,11.43
2018-12-30T02:26:13.153Z,13.33
2018-12-30T02:28:42.278Z,10.70
2018-12-30T02:31:11.261Z,11.33
2018-12-30T02:33:40.217Z,10.20
2018-12-30T02:36:09.259Z,10.30
2018-12-30T02:38:38.343Z,9.17
2018-12-30T02:41:07.335Z,9.07
2018-12-30T02:43:36.363Z,9.90
2018-12-30T02:46:05.348Z,6.90
2018-12-30T02:48:34.324Z,9.33
2018-12-30T02:51:03.308Z,8.60
2018-12-30T02:53:32.265Z,11.63
2018-12-30T02:56:01.297Z,8.73
2018-12-30T02:58:30.354Z,8.73
2018-12-30T03:00:59.413Z,10.80
2018-12-30T03:03:28.435Z,8.00
2018-12-30T03:05:57.436Z,7.63
2018-12-30T03:08:26.415Z,8.70
2018-12-30T03:10:55.779Z,6.53
2018-12-30T03:13:24.728Z,6.87
2018-12-30T03:15:53.726Z,9.90
2018-12-30T03:18:22.718Z,8.20
2018-12-30T03:20:51.710Z,10.57
2018-12-30T03:23:20.905Z,7.87
2018-12-30T03:25:49.920Z,10.70
2018-12-30T03:28:18.858Z,9.33
2018-12-30T03:30:47.858Z,10.77
2018-12-30T03:33:16.881Z,10.20
2018-12-30T03:35:45.866Z,6.73
2018-12-30T03:38:15.036Z,10.40
2018-12-30T03:40:43.962Z,6.37
2018-12-30T03:43:12.995Z,7.57
2018-12-30T03:45:41.997Z,9.40
2018-12-30T03:48:11.096Z,7.00
2018-12-30T03:50:40.086Z,9.10
2018-12-30T03:53:09.004Z,6.47
2018-12-30T03:55:38.062Z,7.30
2018-12-30T03:58:07.034Z,9.83
2018-12-30T04:00:35.936Z,7.07
2018-12-30T04:03:04.942Z,7.00
2018-12-30T04:05:33.932Z,8.23
2018-12-30T04:08:02.978Z,9.30
2018-12-30T04:10:32.100Z,6.53
2018-12-30T04:13:01.096Z,7.13
2018-12-30T04:15:30.076Z,6.37
2018-12-30T04:17:59.072Z,4.77
2018-12-30T04:20:28.051Z,6.23
2018-12-30T04:22:57.032Z,6.67
2018-12-30T04:25:26.002Z,6.30
2018-12-30T04:27:55.012Z,5.30
2018-12-30T04:30:24.101Z,7.47
2018-12-30T04:32:53.060Z,7.07
2018-12-30T04:35:22.114Z,4.17
2018-12-30T04:37:51.274Z,5.93
2018-12-30T04:40:20.318Z,5.03
2018-12-30T04:42:49.313Z,4.93
2018-12-30T04:45:18.403Z,6.93
2018-12-30T04:47:47.365Z,6.20
2018-12-30T04:50:16.374Z,5.30
2018-12-30T04:52:45.357Z,5.07
2018-12-30T04:55:14.333Z,5.77
2018-12-30T04:57:43.320Z,4.17
2018-12-30T05:00:12.277Z,4.03
2018-12-30T05:02:41.262Z,5.40
2018-12-30T05:05:10.618Z,6.80
2018-12-30T05:07:39.610Z,4.90
2018-12-30T05:10:08.590Z,4.70
2018-12-30T05:12:37.641Z,5.63
2018-12-30T05:15:06.710Z,3.87
2018-12-30T05:17:35.685Z,6.20
2018-12-30T05:20:04.942Z,4.07
2018-12-30T05:22:34.202Z,5.93
2018-12-30T05:25:03.221Z,4.80
2018-12-30T05:27:32.254Z,2.83
2018-12-30T05:30:01.213Z,3.13
2018-12-30T05:32:30.191Z,2.73
2018-12-30T05:34:59.151Z,5.67
2018-12-30T05:37:28.129Z,4.47
2018-12-30T05:39:57.127Z,4.10
2018-12-30T05:42:26.128Z,6.40
2018-12-30T05:44:55.156Z,4.07
2018-12-30T05:47:24.163Z,4.90
2018-12-30T05:49:53.275Z,3.07
2018-12-30T05:52:22.254Z,4.57
2018-12-30T05:54:51.306Z,4.23
2018-12-30T05:57:20.299Z,4.27
2018-12-30T05:59:49.251Z,5.67
2018-12-30T06:02:18.269Z,3.60
2018-12-30T06:04:47.307Z,3.70
2018-12-30T06:07:16.283Z,4.80
2018-12-30T06:09:45.345Z,4.40
2018-12-30T06:12:14.330Z,5.03
2018-12-30T06:14:43.336Z,3.30
2018-12-30T06:17:12.304Z,5.10
2018-12-30T06:19:41.360Z,5.57
2018-12-30T06:22:10.329Z,6.87
2018-12-30T06:24:39.382Z,3.97
2018-12-30T06:27:08.378Z,3.13
2018-12-30T06:29:37.415Z,3.70
2018-12-30T06:32:06.487Z,3.40
2018-12-30T06:34:35.545Z,2.60
2018-12-30T06:37:04.555Z,3.47
2018-12-30T06:39:33.507Z,5.00
2018-12-30T06:42:02.516Z,2.07
2018-12-30T06:44:31.593Z,2.60
2018-12-30T06:47:00.570Z,4.97
2018-12-30T06:49:29.555Z,3.53
2018-12-30T06:51:58.517Z,2.23
2018-12-30T06:54:27.508Z,4.10
2018-12-30T06:56:56.557Z,2.90
2018-12-30T06:59:25.556Z,4.03
2018-12-30T07:01:54.612Z,2.73
2018-12-30T07:04:23.648Z,3.00
2018-12-30T07:06:52.635Z,2.30
2018-12-30T07:09:21.632Z,2.30
2018-12-30T07:11:50.712Z,3.67
2018-12-30T07:14:19.692Z,3.70
2018-12-30T07:16:48.737Z,3.97
2018-12-30T07:19:17.738Z,2.17
2018-12-30T07:21:46.697Z,2.97
2018-12-30T07:24:15.712Z,4.17
2018-12-30T07:26:44.690Z,2.53
2018-12-30T07:29:15.704Z,2.97
2018-12-30T07:31:44.679Z,2.47
2018-12-30T07:34:13.681Z,2.43
2018-12-30T07:36:42.755Z,3.53
2018-12-30T07:39:11.714Z,1.97
2018-12-30T07:41:40.716Z,3.73
2018-12-30T07:44:09.765Z,3.20
2018-12-30T07:46:38.748Z,3.37
2018-12-30T07:49:07.731Z,3.53
2018-12-30T07:51:36.780Z,1.80
2018-12-30T07:54:05.770Z,2.37
2018-12-30T07:56:34.751Z,2.80
2018-12-30T07:59:03.756Z,3.70
2018-12-30T08:01:32.696Z,3.03
2018-12-30T08:04:01.704Z,6.63
2018-12-30T08:06:30.753Z,2.67
2018-12-30T08:08:59.723Z,2.37
2018-12-30T08:11:28.721Z,6.00
2018-12-30T08:13:57.720Z,7.33
2018-12-30T08:16:26.675Z,5.93
2018-12-30T08:18:55.683Z,2.33
2018-12-30T08:21:24.750Z,4.17
2018-12-30T08:23:53.818Z,1.13
2018-12-30T08:26:22.797Z,3.43
2018-12-30T08:28:51.803Z,4.40
2018-12-30T08:31:20.853Z,2.63
2018-12-30T08:33:49.936Z,3.70
2018-12-30T08:36:18.939Z,2.47
2018-12-30T08:38:47.921Z,5.07
2018-12-30T08:41:16.982Z,4.50
2018-12-30T08:43:46.028Z,3.53
2018-12-30T08:46:15.132Z,3.07
2018-12-30T08:48:44.206Z,3.10
2018-12-30T08:51:13.081Z,3.17
2018-12-30T08:53:42.197Z,2.37
2018-12-30T08:56:11.266Z,4.80
2018-12-30T08:58:40.164Z,7.93
2018-12-30T09:01:09.127Z,5.37
2018-12-30T09:03:38.184Z,6.03
2018-12-30T09:06:07.150Z,7.43
2018-12-30T09:08:36.086Z,6.27
2018-12-30T09:11:05.078Z,6.90
2018-12-30T09:13:33.977Z,6.37
2018-12-30T09:16:02.985Z,6.97
2018-12-30T09:18:31.986Z,6.33
2018-12-30T09:21:00.979Z,7.83
2018-12-30T09:23:37.090Z,5.17
2018-12-30T09:26:00.773Z,6.50
2018-12-30T09:28:29.769Z,10.07
2018-12-30T09:30:58.715Z,8.53
2018-12-30T09:33:27.661Z,8.67
2018-12-30T09:35:56.672Z,5.33
2018-12-30T09:38:26.385Z,7.03
2018-12-30T09:40:55.479Z,4.73
2018-12-30T09:43:24.499Z,7.97
2018-12-30T09:45:53.487Z,6.10
2018-12-30T09:48:22.521Z,6.73
2018-12-30T09:50:51.517Z,5.33
2018-12-30T09:53:20.641Z,4.20
2018-12-30T09:55:49.630Z,7.00
2018-12-30T09:58:18.602Z,6.80
2018-12-30T10:00:47.659Z,5.93
2018-12-30T10:03:16.577Z,4.77
2018-12-30T10:05:45.625Z,7.17
2018-12-30T10:08:14.729Z,6.30
2018-12-30T10:10:43.719Z,10.70
2018-12-30T10:13:12.687Z,8.83
2018-12-30T10:15:41.723Z,10.70
2018-12-30T10:18:10.844Z,256.67
2018-12-30T10:20:39.824Z,126.70
2018-12-30T10:23:08.932Z,73.47
2018-12-30T10:25:37.921Z,53.87
2018-12-30T10:28:07.257Z,35.73
2018-12-30T10:30:36.239Z,21.17
2018-12-30T10:33:05.267Z,28.10
2018-12-30T10:35:34.265Z,23.40
2018-12-30T10:38:03.323Z,26.07
2018-12-30T10:40:32.306Z,19.67
2018-12-30T10:43:01.354Z,19.03
2018-12-30T10:45:30.719Z,18.70
2018-12-30T10:47:59.815Z,24.00
2018-12-30T10:50:35.347Z,15.77
2018-12-30T10:53:04.380Z,15.93
2018-12-30T10:55:33.445Z,19.27
2018-12-30T10:58:02.591Z,20.23
2018-12-30T11:00:33.197Z,24.20
2018-12-30T11:03:02.146Z,35.43
2018-12-30T11:05:31.110Z,45.43
2018-12-30T11:08:00.253Z,40.17
2018-12-30T11:10:29.342Z,31.17
2018-12-30T11:12:58.488Z,34.87
2018-12-30T11:15:27.526Z,32.47
2018-12-30T11:17:56.552Z,34.37
2018-12-30T11:20:25.618Z,31.30
2018-12-30T11:22:54.620Z,31.65
2018-12-30T11:25:23.704Z,30.30
2018-12-30T11:27:52.701Z,25.63
2018-12-30T11:30:21.687Z,22.50
2018-12-30T11:32:50.667Z,24.70
2018-12-30T11:35:19.649Z,25.83
2018-12-30T11:37:48.617Z,20.50
2018-12-30T11:40:17.608Z,19.03
2018-12-30T11:42:46.569Z,24.63
2018-12-30T11:45:15.614Z,23.77
2018-12-30T11:47:44.591Z,23.13
2018-12-30T11:50:13.579Z,21.43
2018-12-30T11:52:42.567Z,19.77
2018-12-30T11:55:11.545Z,18.27
2018-12-30T11:57:40.478Z,20.10
2018-12-30T12:00:10.091Z,18.60
2018-12-30T12:02:39.066Z,16.90
2018-12-30T12:05:08.046Z,15.80
2018-12-30T12:07:37.111Z,20.13
2018-12-30T12:10:06.281Z,18.33
2018-12-30T12:12:35.682Z,18.17
2018-12-30T12:15:06.688Z,17.13
2018-12-30T12:17:35.808Z,15.63
2018-12-30T12:20:04.913Z,14.90
2018-12-30T12:22:34.041Z,13.97
2018-12-30T12:25:03.106Z,14.63
2018-12-30T12:27:32.151Z,13.47
2018-12-30T12:30:01.325Z,13.60
2018-12-30T12:32:30.285Z,11.63
2018-12-30T12:34:59.257Z,9.83
2018-12-30T12:37:28.189Z,9.30
2018-12-30T12:39:57.089Z,11.57
2018-12-30T12:42:26.035Z,13.17
2018-12-30T12:44:55.036Z,8.37
2018-12-30T12:47:24.093Z,13.20
2018-12-30T12:49:53.305Z,13.10
2018-12-30T12:52:22.308Z,12.67
2018-12-30T12:54:51.287Z,10.60
2018-12-30T12:57:20.253Z,9.03
2018-12-30T12:59:49.303Z,11.23
2018-12-30T13:02:21.188Z,11.27
2018-12-30T13:04:50.175Z,9.53
2018-12-30T13:07:19.173Z,13.43
2018-12-30T13:09:48.133Z,8.20
2018-12-30T13:12:17.126Z,10.37
2018-12-30T13:14:46.093Z,9.73
2018-12-30T13:17:15.083Z,9.70
2018-12-30T13:19:44.050Z,9.30
2018-12-30T13:22:13.018Z,10.07
2018-12-30T13:24:42.017Z,9.37
2018-12-30T13:27:11.003Z,10.93
2018-12-30T13:29:39.977Z,9.77
2018-12-30T13:32:08.945Z,8.23
2018-12-30T13:34:37.930Z,9.97
2018-12-30T13:37:06.902Z,7.70
2018-12-30T13:39:35.895Z,9.33
2018-12-30T13:42:04.883Z,7.27
2018-12-30T13:44:33.916Z,7.37
2018-12-30T13:47:02.946Z,8.27
2018-12-30T13:49:31.925Z,8.77
2018-12-30T13:52:00.869Z,8.53
2018-12-30T13:54:29.809Z,7.77
2018-12-30T13:56:58.857Z,7.67
2018-12-30T13:59:27.836Z,10.93
2018-12-30T14:01:56.819Z,7.03
2018-12-30T14:04:25.864Z,7.70
2018-12-30T14:06:54.827Z,6.17
2018-12-30T14:09:23.768Z,7.77
2018-12-30T14:11:52.748Z,7.10
2018-12-30T14:14:21.795Z,5.90
2018-12-30T14:16:50.792Z,6.90
2018-12-30T14:19:19.813Z,6.37
2018-12-30T14:21:48.749Z,6.53
2018-12-30T14:24:17.674Z,5.40
2018-12-30T14:26:46.659Z,5.03
2018-12-30T14:29:15.627Z,5.47
2018-12-30T14:31:44.600Z,7.53
2018-12-30T14:34:13.600Z,5.53
2018-12-30T14:36:42.569Z,7.87
2018-12-30T14:39:11.511Z,4.23
2018-12-30T14:41:40.468Z,5.73
2018-12-30T14:44:09.442Z,6.13
2018-12-30T14:46:38.390Z,4.50
2018-12-30T14:49:07.283Z,6.80
2018-12-30T14:51:36.191Z,4.27
2018-12-30T14:54:05.168Z,3.87
2018-12-30T14:56:34.183Z,4.60
2018-12-30T14:59:03.134Z,5.07
2018-12-30T15:01:32.085Z,5.63
2018-12-30T15:04:01.068Z,4.70
2018-12-30T15:06:30.035Z,4.77
2018-12-30T15:08:59.017Z,7.70
2018-12-30T15:11:27.978Z,3.37
2018-12-30T15:13:56.942Z,6.13
2018-12-30T15:16:25.869Z,4.37
2018-12-30T15:18:54.876Z,4.07
2018-12-30T15:21:23.862Z,3.27
2018-12-30T15:23:52.839Z,4.40
2018-12-30T15:26:21.883Z,4.83
2018-12-30T15:28:50.865Z,5.10
2018-12-30T15:31:19.839Z,3.90
2018-12-30T15:33:48.825Z,3.63
2018-12-30T15:36:17.795Z,4.23
2018-12-30T15:38:46.787Z,3.67
2018-12-30T15:41:15.756Z,4.73
2018-12-30T15:43:44.704Z,3.93
2018-12-30T15:46:13.690Z,4.70
2018-12-30T15:48:42.650Z,2.73
2018-12-30T15:51:11.617Z,3.23
2018-12-30T15:53:40.619Z,4.37
2018-12-30T15:56:09.600Z,2.83
2018-12-30T15:58:38.649Z,4.00
2018-12-30T16:01:07.635Z,4.40
2018-12-30T16:03:36.690Z,4.43
2018-12-30T16:06:05.695Z,2.63
2018-12-30T16:08:34.633Z,4.80
2018-12-30T16:11:05.106Z,4.97
2018-12-30T16:13:34.094Z,2.57
2018-12-30T16:16:03.074Z,4.20
2018-12-30T16:18:32.121Z,4.40
2018-12-30T16:21:01.114Z,3.50
2018-12-30T16:23:30.117Z,3.60
2018-12-30T16:25:59.075Z,3.13
2018-12-30T16:28:28.060Z,3.70
2018-12-30T16:30:57.126Z,3.50
2018-12-30T16:33:26.155Z,3.67
2018-12-30T16:35:55.124Z,2.37
2018-12-30T16:38:24.130Z,3.33
2018-12-30T16:40:53.047Z,2.27
2018-12-30T16:43:21.985Z,3.80
2018-12-30T16:45:50.959Z,3.77
2018-12-30T16:48:19.931Z,5.10
2018-12-30T16:50:48.926Z,4.40
2018-12-30T16:53:17.874Z,2.97
2018-12-30T16:55:46.849Z,2.97
2018-12-30T16:58:15.856Z,4.73
2018-12-30T17:00:44.779Z,3.57
2018-12-30T17:03:13.724Z,3.23
2018-12-30T17:05:42.689Z,4.53
2018-12-30T17:08:11.704Z,2.90
2018-12-30T17:10:40.711Z,4.13
2018-12-30T17:13:09.784Z,5.30
2018-12-30T17:15:38.773Z,3.73
2018-12-30T17:18:07.832Z,3.40
2018-12-30T17:20:36.828Z,5.90
2018-12-30T17:23:05.881Z,3.07
2018-12-30T17:25:34.868Z,4.20
2018-12-30T17:28:03.913Z,3.47
2018-12-30T17:30:33.020Z,4.27
2018-12-30T17:33:01.997Z,3.43
2018-12-30T17:35:30.976Z,4.33
2018-12-30T17:37:59.932Z,3.00
2018-12-30T17:40:28.862Z,2.57
2018-12-30T17:42:57.838Z,4.37
2018-12-30T17:45:26.799Z,3.43
2018-12-30T17:47:55.759Z,3.70
2018-12-30T17:50:24.713Z,3.63
2018-12-30T17:52:53.698Z,3.10
2018-12-30T17:55:23.540Z,3.83
2018-12-30T17:57:52.637Z,3.23
2018-12-30T18:00:21.660Z,3.60
2018-12-30T18:02:50.687Z,5.60
2018-12-30T18:05:19.667Z,2.93
2018-12-30T18:07:48.663Z,3.90
2018-12-30T18:10:17.625Z,3.63
2018-12-30T18:12:46.604Z,4.73
2018-12-30T18:15:15.550Z,3.13
2018-12-30T18:17:44.482Z,5.37
2018-12-30T18:20:13.488Z,2.87
2018-12-30T18:22:42.465Z,3.47
2018-12-30T18:25:11.429Z,2.13
2018-12-30T18:27:40.579Z,4.37
2018-12-30T18:30:09.534Z,6.13
2018-12-30T18:32:38.508Z,5.63
2018-12-30T18:35:07.507Z,2.83
2018-12-30T18:37:36.477Z,6.57
2018-12-30T18:40:05.686Z,4.37
2018-12-30T18:42:34.679Z,3.93
2018-12-30T18:45:03.668Z,3.80
2018-12-30T18:47:32.668Z,3.70
2018-12-30T18:50:01.634Z,3.37
2018-12-30T18:52:30.611Z,3.83
2018-12-30T18:54:59.676Z,3.80
2018-12-30T18:57:28.659Z,4.23
2018-12-30T18:59:57.656Z,3.73
2018-12-30T19:02:26.637Z,4.43
2018-12-30T19:04:55.823Z,4.90
2018-12-30T19:07:24.872Z,4.40
2018-12-30T19:09:53.859Z,4.47
2018-12-30T19:12:22.838Z,3.67
2018-12-30T19:14:51.807Z,4.80
2018-12-30T19:17:20.815Z,5.03
2018-12-30T19:19:49.815Z,5.83
2018-12-30T19:22:18.746Z,6.43
2018-12-30T19:24:47.686Z,3.37
2018-12-30T19:27:16.671Z,4.13
2018-12-30T19:29:45.636Z,4.63
2018-12-30T19:32:14.623Z,3.33
2018-12-30T19:34:43.602Z,3.90
2018-12-30T19:37:12.533Z,4.53
2018-12-30T19:39:41.487Z,4.67
2018-12-30T19:42:10.533Z,3.60
2018-12-30T19:44:39.522Z,4.63
2018-12-30T19:47:08.493Z,5.30
2018-12-30T19:49:37.455Z,3.23
2018-12-30T19:52:07.336Z,3.93
2018-12-30T19:54:36.403Z,3.43
2018-12-30T19:57:05.384Z,4.03
2018-12-30T19:59:34.374Z,6.60
2018-12-30T20:02:03.422Z,3.60
2018-12-30T20:04:40.291Z,3.93
2018-12-30T20:07:03.132Z,4.83
2018-12-30T20:09:32.099Z,4.40
2018-12-30T20:12:01.089Z,4.07
2018-12-30T20:14:30.063Z,6.10
2018-12-30T20:16:59.018Z,3.90
2018-12-30T20:19:27.947Z,4.63
2018-12-30T20:21:56.993Z,4.80
2018-12-30T20:24:25.962Z,4.60
2018-12-30T20:26:54.925Z,4.07
2018-12-30T20:29:23.995Z,3.03
2018-12-30T20:31:52.955Z,5.03
2018-12-30T20:34:21.933Z,4.27
2018-12-30T20:36:50.908Z,4.00
2018-12-30T20:39:19.914Z,4.93
2018-12-30T20:41:48.858Z,4.90
2018-12-30T20:44:17.787Z,3.93
2018-12-30T20:46:46.782Z,4.33
2018-12-30T20:49:15.732Z,3.33
2018-12-30T20:51:44.706Z,4.90
2018-12-30T20:54:13.639Z,3.63
2018-12-30T20:56:42.595Z,5.43
2018-12-30T20:59:11.663Z,3.83
2018-12-30T21:01:40.602Z,4.37
2018-12-30T21:04:09.532Z,4.03
2018-12-30T21:06:38.522Z,3.23
2018-12-30T21:09:07.603Z,3.83
2018-12-30T21:11:36.640Z,3.10
2018-12-30T21:14:05.623Z,3.13
2018-12-30T21:16:34.624Z,4.43
2018-12-30T21:19:03.599Z,3.70
2018-12-30T21:21:32.554Z,4.20
2018-12-30T21:24:01.639Z,3.67
2018-12-30T21:26:30.539Z,2.97
2018-12-30T21:28:59.504Z,3.97
2018-12-30T21:31:28.453Z,3.40
2018-12-30T21:33:57.429Z,5.17
2018-12-30T21:36:26.397Z,4.40
2018-12-30T21:38:55.375Z,3.07
2018-12-30T21:41:24.496Z,3.23
2018-12-30T21:43:54.848Z,3.30
2018-12-30T21:46:23.829Z,3.13
2018-12-30T21:48:52.811Z,3.33
2018-12-30T21:51:21.877Z,3.50
2018-12-30T21:53:50.865Z,3.37
2018-12-30T21:56:19.852Z,3.57
2018-12-30T21:58:48.810Z,4.20
2018-12-30T22:01:17.795Z,3.23
2018-12-30T22:03:46.779Z,3.50
2018-12-30T22:06:15.845Z,3.17
2018-12-30T22:08:44.835Z,2.83
2018-12-30T22:11:13.825Z,3.57
2018-12-30T22:13:42.801Z,3.10
2018-12-30T22:16:11.763Z,2.57
2018-12-30T22:18:40.716Z,2.83
2018-12-30T22:21:09.682Z,4.23
2018-12-30T22:23:38.724Z,3.83
2018-12-30T22:26:07.726Z,3.47
2018-12-30T22:28:36.709Z,3.60
2018-12-30T22:31:05.707Z,3.33
2018-12-30T22:33:34.702Z,3.70
2018-12-30T22:36:03.669Z,3.87
2018-12-30T22:38:32.688Z,3.40
2018-12-30T22:41:01.674Z,3.33
2018-12-30T22:43:30.605Z,4.13
2018-12-30T22:45:59.642Z,2.53
2018-12-30T22:48:28.621Z,5.23
2018-12-30T22:50:57.620Z,2.90
2018-12-30T22:53:26.627Z,3.57
2018-12-30T22:55:55.597Z,2.33
2018-12-30T22:58:24.612Z,2.60
2018-12-30T23:00:59.593Z,3.33
2018-12-30T23:03:28.560Z,3.63
2018-12-30T23:05:57.543Z,2.40
2018-12-30T23:08:26.589Z,3.57
2018-12-30T23:10:56.861Z,3.03
2018-12-30T23:13:25.817Z,3.57
2018-12-30T23:15:54.896Z,3.83
2018-12-30T23:18:23.887Z,3.63
2018-12-30T23:20:52.853Z,3.37
2018-12-30T23:23:21.806Z,3.13
2018-12-30T23:25:50.808Z,3.13
2018-12-30T23:28:19.745Z,2.60
2018-12-30T23:30:48.686Z,2.30
2018-12-30T23:33:17.731Z,2.70
2018-12-30T23:35:46.721Z,2.40
2018-12-30T23:38:15.686Z,2.80
2018-12-30T23:40:44.649Z,2.53
2018-12-30T23:43:13.626Z,4.23
2018-12-30T23:45:42.689Z,3.10
2018-12-30T23:48:12.711Z,3.43
2018-12-30T23:50:41.731Z,2.87
2018-12-30T23:53:10.808Z,3.17
2018-12-30T23:55:39.784Z,3.47
2018-12-30T23:58:08.777Z,1.90
